Airfield :







YOU CAN JOIN US ON...

 
LOGIN :

Register | Disclaimer

   EN    FR    IT 

 









Legend :    VFR   Marginal VFR   IFR   Intensive IFR   Very Intensive IFR
Visi :
Ceiling :
>= 8 km
>= 3000ft
5 to 8 km
1000 to 3000 ft
1500m to 5 km
500 to 1000 ft
800 to 1500m
200 to 500 ft
< 800m
< 200 ft
Symbols :   Thunderstorms  Fog  Heavy snow  Heavy precipitations  Wind > 20 kt






- Airport Elevation : 108 ft
- IATA code : YAY


CYAY - St Anthony

CURRENT METAR :
  • 010225Z AUTO 03012G17KT 3SM -RA BR BKN004 OVC012 00/M00 A3014 RMK SLP210

EXPIRED METARs :
  • 010200Z AUTO 03016G21KT 4SM BR BKN004 OVC016 00/M00 A3014 RMK SLP211
  • 010149Z AUTO 03014G19KT 4SM BR BKN004 OVC016 00/M00 A3015 RMK SLP212
  • 010128Z AUTO 02016G22KT 3SM -RA BR OVC004 00/M00 A3014 RMK SLP211
  • 010117Z AUTO 03017G23KT 6SM BR OVC004 00/M00 A3014 RMK SLP211
  • 010057Z AUTO 02019KT 3SM -RA BR OVC004 00/M00 A3014 RMK SLP208
  • 010018Z AUTO 02019G24KT 2SM -RA BR OVC006 00/M00 A3013 RMK SLP206
  • 010000Z AUTO 01020G26KT 1 3/4SM -RA BR BKN006 OVC020 00/M00 A3012 RMK PCPN 0.5MM PAST HR SLP204
  • 312350Z AUTO 02022G28KT 1 3/4SM -RA BR BKN006 OVC020 00/M00 A3012 RMK SLP204
  • 312344Z AUTO 02022G28KT 2 1/2SM -RA BR BKN006 BKN009 OVC020 00/M00 A3012 RMK SLP203

TAF TAF CYAY
Valid from the 01 at 02:00 until the 01 at 14:00 UTC


010138Z 0102/0114 04018G28KT 11/2SM -RA BR OVC003
TEMPO 0102/0114 6SM -DZ BR OVC006
BECMG 0107/0109 10012G22KT RMK FCST BASED ON AUTO OBS. NXT FCST BY 010800Z



MET'MAP, your aeronautical weather chart ! - Copyright ORBIFLY December 2007 - Disclaimer

ORBIFLY MET'MAP TEAM :

Programming & Development : Alexandra Zaïnal
Concept & original design : Baudouin d'Aumeries
Assistance for programming : Marc-Olivier Méhu
Technical & hardware support : Manuel Goepfert

Contact : metmap@orbifly.com




SOURCES & CREDITS :

   NOAA